Time;durP1;ratioP1;P1;durP2;ratioP2;P2;SDS_P1;SDS_P2;PMS_P1;PMS_P2;Temp;Humidity;BMP_temperature;BMP_pressure;BME280_temperature;BME280_humidity;BME280_pressure;Samples;Min_cycle;Max_cycle;Signal;HPM_P1;HPM_P2
2022/01/09 00:00:23;;;;;;;1.63;1.27;;;3.00;99.90;;;;;;5096644;27;20074;-82
2022/01/09 00:03:10;;;;;;;0.70;0.70;;;2.90;99.90;;;;;;5121374;28;20058;-79
2022/01/09 00:05:58;;;;;;;0.90;0.90;;;3.00;99.90;;;;;;5123838;27;20051;-80
2022/01/09 00:08:45;;;;;;;0.60;0.60;;;2.90;99.90;;;;;;5117035;27;20078;-80
2022/01/09 00:11:33;;;;;;;1.13;0.68;;;2.90;99.90;;;;;;5142789;27;20403;-78
2022/01/09 00:14:20;;;;;;;1.02;0.80;;;2.90;99.90;;;;;;5109732;27;20522;-84
2022/01/09 00:17:07;;;;;;;0.68;0.68;;;2.80;99.90;;;;;;5115976;27;20104;-80
2022/01/09 00:19:57;;;;;;;0.65;0.65;;;2.80;99.90;;;;;;5112081;27;20725;-81
2022/01/09 00:22:47;;;;;;;3.42;0.80;;;2.80;99.90;;;;;;5124693;27;20053;-80
2022/01/09 00:25:35;;;;;;;1.02;0.80;;;2.80;99.90;;;;;;5139904;27;20103;-79
2022/01/09 00:28:22;;;;;;;0.65;0.65;;;2.70;99.90;;;;;;5122497;27;20069;-84
2022/01/09 00:31:10;;;;;;;0.88;0.70;;;2.70;99.90;;;;;;5134399;27;20112;-82
2022/01/09 00:33:57;;;;;;;0.70;0.70;;;2.60;99.90;;;;;;5117305;27;20128;-80
2022/01/09 00:36:45;;;;;;;0.95;0.80;;;2.60;99.90;;;;;;5107187;27;20396;-82
2022/01/09 00:39:32;;;;;;;1.13;0.70;;;2.70;99.90;;;;;;5114219;27;20054;-84
2022/01/09 00:42:19;;;;;;;0.85;0.85;;;2.60;99.90;;;;;;5105098;27;20074;-82
2022/01/09 00:45:08;;;;;;;0.75;0.75;;;2.60;99.90;;;;;;5113221;27;20086;-81
2022/01/09 00:47:56;;;;;;;1.38;1.27;;;2.60;99.90;;;;;;5110237;27;20054;-82
2022/01/09 00:50:53;;;;;;;0.80;0.80;;;2.60;99.90;;;;;;5116130;27;20409;-80
2022/01/09 00:53:42;;;;;;;;;;;2.60;99.90;;;;;;5101756;28;20177;-82
2022/01/09 00:56:32;;;;;;;1.30;0.88;;;2.70;99.90;;;;;;5115628;27;20257;-82
2022/01/09 00:59:19;;;;;;;0.70;0.70;;;2.60;99.90;;;;;;5102671;27;20496;-82
2022/01/09 01:02:06;;;;;;;0.70;0.70;;;2.60;99.90;;;;;;5107218;27;20115;-84
2022/01/09 01:04:54;;;;;;;0.93;0.70;;;2.60;99.90;;;;;;5109720;27;20051;-83
2022/01/09 01:07:41;;;;;;;0.70;0.70;;;2.60;99.90;;;;;;5110481;27;20059;-82
2022/01/09 01:10:30;;;;;;;0.70;0.70;;;2.60;99.90;;;;;;5111868;27;20403;-81
2022/01/09 01:13:17;;;;;;;0.60;0.60;;;2.70;99.90;;;;;;5109921;27;20119;-84
2022/01/09 01:16:07;;;;;;;0.80;0.80;;;2.60;99.90;;;;;;5098322;27;20105;-81
2022/01/09 01:18:55;;;;;;;0.63;0.60;;;2.60;99.90;;;;;;5116360;27;20046;-82
2022/01/09 01:21:45;;;;;;;0.68;0.68;;;2.70;99.90;;;;;;5117726;27;20039;-82
2022/01/09 01:24:36;;;;;;;0.60;0.60;;;2.70;99.90;;;;;;5143862;27;20085;-82
2022/01/09 01:27:25;;;;;;;0.70;0.70;;;2.80;99.90;;;;;;5117744;27;20047;-82
2022/01/09 01:30:13;;;;;;;0.70;0.70;;;2.80;99.90;;;;;;5128595;27;20055;-82
2022/01/09 01:33:01;;;;;;;0.60;0.60;;;2.80;99.90;;;;;;5126344;27;20054;-83
2022/01/09 01:35:49;;;;;;;0.73;0.60;;;2.80;99.90;;;;;;5109237;27;20038;-81
2022/01/09 01:38:38;;;;;;;0.57;0.57;;;2.90;99.90;;;;;;5108918;27;20511;-81
2022/01/09 01:41:25;;;;;;;0.60;0.60;;;2.90;99.90;;;;;;5102686;27;20046;-81
2022/01/09 01:44:15;;;;;;;0.60;0.60;;;3.00;99.90;;;;;;5110967;27;20034;-82
2022/01/09 01:47:03;;;;;;;1.27;0.80;;;2.90;99.90;;;;;;5127062;27;20513;-80
2022/01/09 01:49:53;;;;;;;0.57;0.57;;;2.90;99.90;;;;;;5111803;27;20058;-78
2022/01/09 01:52:45;;;;;;;0.60;0.60;;;2.90;99.90;;;;;;5114991;27;20127;-82
2022/01/09 01:55:36;;;;;;;0.60;0.60;;;2.90;99.90;;;;;;5131081;27;20050;-83
2022/01/09 01:58:26;;;;;;;0.70;0.70;;;3.00;99.90;;;;;;5123560;27;20051;-80
2022/01/09 02:01:15;;;;;;;0.73;0.73;;;2.90;99.90;;;;;;5099968;27;20167;-81
2022/01/09 02:04:06;;;;;;;1.27;1.02;;;3.00;99.90;;;;;;5103762;27;20067;-80
2022/01/09 02:06:57;;;;;;;1.77;0.73;;;2.90;99.90;;;;;;5124451;27;20043;-80
2022/01/09 02:09:44;;;;;;;0.60;0.60;;;3.00;99.90;;;;;;5130405;27;20120;-82
2022/01/09 02:12:35;;;;;;;0.65;0.65;;;3.00;99.90;;;;;;5106294;27;20055;-81
2022/01/09 02:15:43;;;;;;;0.70;0.70;;;3.00;99.90;;;;;;5102646;27;20059;-81
2022/01/09 02:18:30;;;;;;;0.70;0.70;;;3.00;99.90;;;;;;5129627;27;20039;-82
2022/01/09 02:21:22;;;;;;;0.60;0.60;;;3.00;99.90;;;;;;5101513;27;20078;-80
2022/01/09 02:24:14;;;;;;;0.70;0.70;;;3.00;99.90;;;;;;5111333;27;20158;-82
2022/01/09 02:27:04;;;;;;;0.57;0.57;;;3.00;99.90;;;;;;5132740;27;20059;-79
2022/01/09 02:29:52;;;;;;;0.57;0.57;;;2.90;99.90;;;;;;5123868;27;20047;-81
2022/01/09 02:32:39;;;;;;;0.70;0.70;;;2.90;99.90;;;;;;5107741;27;20128;-78
2022/01/09 02:35:29;;;;;;;0.60;0.60;;;2.80;99.90;;;;;;5094991;27;20126;-83
2022/01/09 02:38:17;;;;;;;0.73;0.73;;;2.80;99.90;;;;;;5108773;27;20430;-80
2022/01/09 02:41:06;;;;;;;0.60;0.60;;;2.80;99.90;;;;;;5097778;27;20077;-80
2022/01/09 02:43:53;;;;;;;2.03;0.70;;;2.80;99.90;;;;;;5115367;27;20039;-80
2022/01/09 02:49:47;;;;;;;0.70;0.70;;;2.80;99.90;;;;;;5113320;27;20071;-81
2022/01/09 02:52:36;;;;;;;0.70;0.70;;;2.80;99.90;;;;;;5111769;28;20042;-81
2022/01/09 02:55:25;;;;;;;0.70;0.70;;;2.80;99.90;;;;;;5118998;27;20504;-82
2022/01/09 02:58:16;;;;;;;0.70;0.68;;;2.80;99.90;;;;;;5126362;27;20552;-82
2022/01/09 03:01:06;;;;;;;1.50;0.80;;;2.80;99.90;;;;;;5116766;27;20092;-82
2022/01/09 03:03:53;;;;;;;0.73;0.70;;;2.80;99.90;;;;;;5115621;28;20077;-81
2022/01/09 03:06:41;;;;;;;1.33;0.88;;;2.90;99.90;;;;;;5128116;27;20058;-79
2022/01/09 03:09:29;;;;;;;0.80;0.80;;;2.80;99.90;;;;;;5125921;27;20096;-81
2022/01/09 03:12:17;;;;;;;0.80;0.80;;;2.80;99.90;;;;;;5122774;28;20070;-80
2022/01/09 03:15:08;;;;;;;1.90;0.85;;;2.80;99.90;;;;;;5091089;28;20562;-79
2022/01/09 03:18:00;;;;;;;1.02;0.90;;;2.80;99.90;;;;;;5112562;27;20468;-82
2022/01/09 03:20:47;;;;;;;;;;;2.80;99.90;;;;;;5112548;28;20130;-78
2022/01/09 03:23:35;;;;;;;1.33;0.93;;;2.80;99.90;;;;;;5104407;28;19942;-79
2022/01/09 03:26:22;;;;;;;0.90;0.90;;;2.80;99.90;;;;;;5097841;28;20380;-80
2022/01/09 03:29:09;;;;;;;0.80;0.80;;;2.80;99.90;;;;;;5096938;28;20513;-79
2022/01/09 03:31:56;;;;;;;0.80;0.80;;;2.80;99.90;;;;;;5112311;28;20083;-80
2022/01/09 03:34:46;;;;;;;0.77;0.77;;;2.80;99.90;;;;;;5114536;28;20501;-81
2022/01/09 03:37:36;;;;;;;0.80;0.80;;;2.80;99.90;;;;;;5115257;28;20046;-80
2022/01/09 03:40:26;;;;;;;0.80;0.80;;;2.80;99.90;;;;;;5127724;27;20123;-81
2022/01/09 03:43:13;;;;;;;0.80;0.80;;;2.80;99.90;;;;;;5122069;27;20069;-80
2022/01/09 03:46:05;;;;;;;0.70;0.70;;;2.80;99.90;;;;;;5119279;27;20405;-81
2022/01/09 03:48:56;;;;;;;0.82;0.70;;;2.80;99.90;;;;;;5112199;27;20606;-80
2022/01/09 03:51:45;;;;;;;0.70;0.70;;;2.90;99.90;;;;;;5131038;27;20422;-80
2022/01/09 03:54:32;;;;;;;0.75;0.73;;;2.80;99.90;;;;;;5120460;27;20058;-81
2022/01/09 03:57:21;;;;;;;0.70;0.70;;;2.80;99.90;;;;;;5099058;27;20120;-80
2022/01/09 04:00:12;;;;;;;1.15;0.80;;;2.70;99.90;;;;;;5128535;27;20047;-79
2022/01/09 04:03:02;;;;;;;0.80;0.80;;;2.80;99.90;;;;;;5116948;27;20039;-80
2022/01/09 04:05:50;;;;;;;0.80;0.80;;;2.90;99.90;;;;;;5103839;27;20332;-80
2022/01/09 04:08:38;;;;;;;0.70;0.70;;;2.90;99.90;;;;;;5118058;27;20099;-82
2022/01/09 04:11:28;;;;;;;1.63;0.85;;;3.00;99.90;;;;;;5123743;27;20039;-79
2022/01/09 04:14:16;;;;;;;2.00;0.80;;;3.00;99.90;;;;;;5088321;27;20046;-81
2022/01/09 04:17:05;;;;;;;0.70;0.70;;;3.10;99.90;;;;;;5126083;27;20050;-80
2022/01/09 04:19:55;;;;;;;0.68;0.68;;;3.00;99.90;;;;;;5104829;27;20325;-80
2022/01/09 04:22:42;;;;;;;0.73;0.70;;;3.00;99.90;;;;;;5101982;27;20097;-81
2022/01/09 04:25:32;;;;;;;0.88;0.80;;;2.90;99.90;;;;;;5119568;27;20062;-81
2022/01/09 04:28:19;;;;;;;0.85;0.80;;;2.90;99.90;;;;;;5095191;27;20103;-82
2022/01/09 04:31:06;;;;;;;1.02;0.88;;;2.90;99.90;;;;;;5138145;27;20047;-80
2022/01/09 04:33:53;;;;;;;0.80;0.80;;;3.00;99.90;;;;;;5107257;27;20046;-81
2022/01/09 04:36:41;;;;;;;0.60;0.60;;;3.00;99.90;;;;;;5087981;28;20242;-81
2022/01/09 04:39:28;;;;;;;2.60;0.73;;;3.10;99.90;;;;;;5098459;27;20180;-80
2022/01/09 04:42:16;;;;;;;0.60;0.60;;;3.00;99.90;;;;;;5116547;27;20050;-79
2022/01/09 04:45:06;;;;;;;1.95;0.70;;;3.00;99.90;;;;;;5108445;27;20043;-83
2022/01/09 04:47:59;;;;;;;0.60;0.60;;;2.90;99.90;;;;;;5116864;27;20156;-82
2022/01/09 04:50:47;;;;;;;1.00;0.93;;;2.70;99.90;;;;;;5119199;27;20469;-82
2022/01/09 04:53:34;;;;;;;0.50;0.50;;;2.60;99.90;;;;;;5107349;27;20043;-82
2022/01/09 04:56:23;;;;;;;0.55;0.55;;;2.50;99.90;;;;;;5102917;27;20108;-82
2022/01/09 04:59:13;;;;;;;1.08;0.70;;;2.30;99.90;;;;;;5103777;27;20379;-80
2022/01/09 05:02:00;;;;;;;0.70;0.70;;;2.20;99.90;;;;;;5101208;27;20230;-81
2022/01/09 05:04:48;;;;;;;0.60;0.60;;;2.00;99.90;;;;;;5114093;27;20047;-80
2022/01/09 05:07:41;;;;;;;0.60;0.60;;;1.80;99.90;;;;;;5136581;27;20039;-80
2022/01/09 05:10:30;;;;;;;0.60;0.60;;;1.80;99.90;;;;;;5116370;27;20046;-80
2022/01/09 05:13:17;;;;;;;0.70;0.70;;;1.70;99.90;;;;;;5118459;27;20047;-82
2022/01/09 05:16:05;;;;;;;0.65;0.65;;;1.70;99.90;;;;;;5099685;27;20094;-81
2022/01/09 05:19:02;;;;;;;0.50;0.50;;;1.70;99.90;;;;;;5114085;27;20399;-83
2022/01/09 05:21:49;;;;;;;0.60;0.60;;;1.70;99.90;;;;;;5096695;28;20091;-82
2022/01/09 05:24:36;;;;;;;2.20;0.60;;;1.70;99.90;;;;;;5111192;27;20096;-82
2022/01/09 05:27:25;;;;;;;0.60;0.60;;;1.60;99.90;;;;;;5122817;27;20051;-81
2022/01/09 05:30:14;;;;;;;0.60;0.60;;;1.50;99.90;;;;;;5111315;27;20043;-81
2022/01/09 05:33:02;;;;;;;1.75;0.73;;;1.40;99.90;;;;;;5127086;27;20050;-80
2022/01/09 05:35:57;;;;;;;0.57;0.57;;;1.40;99.90;;;;;;5105197;27;20044;-81
2022/01/09 05:38:44;;;;;;;0.60;0.60;;;1.30;99.90;;;;;;5129413;27;20106;-81
2022/01/09 05:41:31;;;;;;;1.52;0.60;;;1.30;99.90;;;;;;5105093;27;20093;-82
2022/01/09 05:44:19;;;;;;;0.70;0.70;;;1.40;99.90;;;;;;5095552;27;20070;-79
2022/01/09 05:47:06;;;;;;;0.88;0.65;;;1.40;99.90;;;;;;5122450;27;20043;-80
2022/01/09 05:49:54;;;;;;;0.70;0.70;;;1.40;99.90;;;;;;5116249;27;20058;-80
2022/01/09 05:52:42;;;;;;;0.70;0.70;;;1.50;99.90;;;;;;5128650;27;20334;-80
2022/01/09 05:55:32;;;;;;;3.35;0.80;;;1.50;99.90;;;;;;5126493;27;20104;-80
2022/01/09 05:58:19;;;;;;;0.70;0.70;;;1.50;99.90;;;;;;5116192;27;20082;-80
2022/01/09 06:01:07;;;;;;;1.27;0.70;;;1.50;99.90;;;;;;5098762;27;20035;-81
2022/01/09 06:03:54;;;;;;;0.60;0.60;;;1.50;99.90;;;;;;5120221;27;20173;-82
2022/01/09 06:06:42;;;;;;;0.60;0.60;;;1.50;99.90;;;;;;5117154;27;20196;-81
2022/01/09 06:09:29;;;;;;;0.60;0.60;;;1.40;99.90;;;;;;5106579;27;20446;-81
2022/01/09 06:12:16;;;;;;;0.80;0.80;;;1.40;99.90;;;;;;5114990;27;20154;-81
2022/01/09 06:15:05;;;;;;;0.98;0.90;;;1.30;99.90;;;;;;5133997;27;20073;-81
2022/01/09 06:17:52;;;;;;;0.70;0.70;;;1.30;99.90;;;;;;5099781;27;20132;-82
2022/01/09 06:20:42;;;;;;;0.90;0.90;;;1.20;99.90;;;;;;5116655;27;20505;-81
2022/01/09 06:23:29;;;;;;;0.80;0.80;;;1.20;99.90;;;;;;5113988;27;20046;-81
2022/01/09 06:26:16;;;;;;;0.90;0.90;;;1.10;99.90;;;;;;5089344;27;20061;-79
2022/01/09 06:29:09;;;;;;;1.02;0.95;;;1.10;99.90;;;;;;5097739;27;20054;-79
2022/01/09 06:32:00;;;;;;;1.02;1.00;;;1.10;99.90;;;;;;5100876;27;20094;-81
2022/01/09 06:34:48;;;;;;;0.75;0.75;;;1.00;99.90;;;;;;5114708;27;20039;-82
2022/01/09 06:37:39;;;;;;;1.00;1.00;;;1.00;99.90;;;;;;5115637;27;20487;-80
2022/01/09 06:40:27;;;;;;;1.00;1.00;;;1.00;99.90;;;;;;5115412;27;20196;-80
2022/01/09 06:43:15;;;;;;;1.30;1.20;;;1.00;99.90;;;;;;5119167;27;20047;-80
2022/01/09 06:46:04;;;;;;;0.90;0.90;;;1.00;99.90;;;;;;5112168;27;20058;-79
2022/01/09 06:48:52;;;;;;;1.20;1.13;;;1.00;99.90;;;;;;5083985;27;20123;-81
2022/01/09 06:51:39;;;;;;;1.02;1.02;;;1.00;99.90;;;;;;5113429;27;20143;-82
2022/01/09 06:54:32;;;;;;;0.90;0.90;;;1.00;99.90;;;;;;5138417;27;20156;-80
2022/01/09 06:57:27;;;;;;;1.40;1.30;;;0.90;99.90;;;;;;5138396;27;20046;-81
2022/01/09 07:00:17;;;;;;;1.00;1.00;;;0.90;99.90;;;;;;5088483;27;20135;-83
2022/01/09 07:03:04;;;;;;;1.00;1.00;;;0.80;99.90;;;;;;5105867;28;20422;-82
2022/01/09 07:05:57;;;;;;;5.57;1.63;;;0.90;99.90;;;;;;5096064;27;20047;-80
2022/01/09 07:08:44;;;;;;;2.22;1.20;;;0.90;99.90;;;;;;5114812;28;20088;-81
2022/01/09 07:11:32;;;;;;;1.17;1.17;;;0.90;99.90;;;;;;5102034;28;20173;-85
2022/01/09 07:14:44;;;;;;;1.63;1.40;;;1.00;99.90;;;;;;5122631;27;20195;-84
2022/01/09 07:17:35;;;;;;;7.30;1.73;;;1.00;99.90;;;;;;5071074;27;20043;-84
2022/01/09 07:20:22;;;;;;;4.03;2.13;;;1.00;99.90;;;;;;5122489;27;20766;-83
2022/01/09 07:23:22;;;;;;;9.45;2.65;;;1.10;99.90;;;;;;5125871;27;20054;-85
2022/01/09 07:26:11;;;;;;;7.43;2.58;;;1.20;99.90;;;;;;5083348;27;20172;-84
2022/01/09 07:29:02;;;;;;;4.60;1.95;;;1.30;99.90;;;;;;5097791;27;20050;-84
2022/01/09 07:31:51;;;;;;;9.02;1.75;;;1.30;99.90;;;;;;5113447;27;20063;-82
2022/01/09 07:34:40;;;;;;;6.70;1.98;;;1.40;99.90;;;;;;5097943;28;20039;-83
2022/01/09 07:37:31;;;;;;;12.40;3.00;;;1.40;99.90;;;;;;5107011;27;20059;-82
2022/01/09 07:40:20;;;;;;;11.77;2.47;;;1.50;99.90;;;;;;5108639;27;20100;-83
2022/01/09 07:43:07;;;;;;;10.38;3.00;;;1.50;99.90;;;;;;5131566;27;20055;-82
2022/01/09 07:45:56;;;;;;;17.33;3.42;;;1.50;99.90;;;;;;5108044;27;20035;-83
2022/01/09 07:48:43;;;;;;;9.00;2.60;;;1.60;99.90;;;;;;5119902;27;20047;-78
2022/01/09 07:51:33;;;;;;;8.43;2.85;;;1.70;99.90;;;;;;5131283;27;20142;-78
2022/01/09 07:58:35;;;;;;;8.15;3.60;;;1.70;99.90;;;;;;5131121;27;20364;-82
2022/01/09 08:01:22;;;;;;;12.05;2.95;;;1.80;99.90;;;;;;5110452;27;20455;-81
2022/01/09 08:04:18;;;;;;;17.13;3.17;;;1.80;99.90;;;;;;5103401;27;20043;-80
2022/01/09 08:07:51;;;;;;;17.73;3.13;;;1.90;99.90;;;;;;5132182;27;20065;-79
2022/01/09 08:13:57;;;;;;;10.68;3.10;;;1.90;99.90;;;;;;5125086;27;20051;-80
2022/01/09 08:17:35;;;;;;;9.50;2.97;;;1.90;99.90;;;;;;5116482;27;20274;-79
2022/01/09 08:20:48;;;;;;;11.75;2.80;;;1.90;99.90;;;;;;5106985;27;20153;-81
2022/01/09 08:27:49;;;;;;;11.55;2.90;;;1.90;99.90;;;;;;5128114;27;20563;-80
2022/01/09 08:31:27;;;;;;;9.82;2.95;;;2.00;99.90;;;;;;5136270;27;20115;-79
2022/01/09 08:38:44;;;;;;;18.48;2.90;;;2.00;99.90;;;;;;5125382;27;20504;-78
2022/01/09 08:42:03;;;;;;;11.60;2.75;;;2.10;99.90;;;;;;5126871;27;20753;-78
2022/01/09 08:45:18;;;;;;;9.18;3.22;;;2.10;99.90;;;;;;5026797;28;20041;-79
2022/01/09 08:48:28;;;;;;;11.15;2.60;;;2.10;99.90;;;;;;5028911;28;20045;-79
2022/01/09 08:51:53;;;;;;;8.65;2.05;;;2.10;99.90;;;;;;5022383;28;20110;-80
2022/01/09 08:55:35;;;;;;;6.88;2.78;;;1.90;99.90;;;;;;5035799;28;20052;-80
2022/01/09 08:59:40;;;;;;;;;;;;;;;;;;;;;
2022/01/09 09:02:48;;;;;;;7.97;2.45;;;1.90;99.90;;;;;;4933850;29;20048;-80
2022/01/09 09:05:36;;;;;;;17.73;3.53;;;2.10;99.90;;;;;;4944862;28;20154;-80
2022/01/09 09:08:41;;;;;;;15.32;3.22;;;2.40;99.90;;;;;;4950316;28;20067;-80
2022/01/09 09:12:11;;;;;;;;;;;;;;;;;;;;;
2022/01/09 09:19:10;;;;;;;7.95;2.80;;;3.50;99.90;;;;;;4988308;28;20068;-81
2022/01/09 09:21:57;;;;;;;11.10;3.00;;;3.70;99.90;;;;;;5055581;27;20129;-80
2022/01/09 09:25:52;;;;;;;8.00;2.38;;;3.70;99.90;;;;;;5116677;27;20137;-82
2022/01/09 09:28:40;;;;;;;11.50;2.17;;;3.60;99.90;;;;;;5045751;28;20155;-81
2022/01/09 09:31:27;;;;;;;11.07;2.42;;;3.70;99.90;;;;;;5049305;27;20093;-81
2022/01/09 09:35:02;;;;;;;;;;;;;;;;;;;;;
2022/01/09 09:39:26;;;;;;;8.23;2.60;;;4.50;99.90;;;;;;5134985;27;20035;-81
2022/01/09 09:42:56;;;;;;;18.63;2.97;;;5.10;99.90;;;;;;5061691;28;20048;-81
2022/01/09 09:45:48;;;;;;;7.03;2.10;;;5.10;99.90;;;;;;5056351;28;20044;-81
2022/01/09 09:48:36;;;;;;;9.05;2.13;;;5.30;99.90;;;;;;5055181;28;20327;-82
2022/01/09 09:51:27;;;;;;;9.48;2.10;;;4.80;99.90;;;;;;5116517;27;20054;-81
2022/01/09 09:54:15;;;;;;;15.55;3.10;;;4.30;99.90;;;;;;5100227;27;20047;-81
2022/01/09 09:57:04;;;;;;;8.43;2.30;;;4.00;99.90;;;;;;5098891;27;20150;-81
2022/01/09 10:00:09;;;;;;;13.45;2.60;;;3.90;99.90;;;;;;5115788;27;20155;-81
2022/01/09 10:03:03;;;;;;;11.48;3.05;;;3.80;99.90;;;;;;5107566;27;20035;-81
2022/01/09 10:15:28;;;;;;;;;;;;;;;;;;;;;
2022/01/09 10:18:44;;;;;;;9.18;2.40;;;3.80;99.90;;;;;;5005532;28;20049;-81
2022/01/09 10:21:32;;;;;;;12.32;3.22;;;4.10;99.90;;;;;;5019048;28;20049;-79
2022/01/09 10:24:31;;;;;;;8.80;2.40;;;4.60;99.90;;;;;;5113659;27;20156;-80
2022/01/09 10:27:36;;;;;;;10.10;3.17;;;4.50;99.90;;;;;;5105050;27;20097;-82
2022/01/09 10:30:30;;;;;;;5.85;2.22;;;4.90;99.90;;;;;;5121373;27;20111;-84
2022/01/09 10:33:24;;;;;;;6.90;1.90;;;5.00;99.90;;;;;;5115967;27;20107;-81
2022/01/09 10:36:52;;;;;;;7.13;2.40;;;4.80;99.90;;;;;;5125742;27;20047;-80
2022/01/09 10:39:41;;;;;;;7.95;2.75;;;4.50;99.90;;;;;;5115348;27;20131;-81
2022/01/09 10:42:28;;;;;;;13.07;2.45;;;3.90;99.90;;;;;;5108778;27;20062;-79
2022/01/09 10:45:21;;;;;;;14.23;2.92;;;3.70;99.90;;;;;;5101874;27;20054;-79
2022/01/09 10:48:12;;;;;;;14.82;4.30;;;3.50;99.90;;;;;;5118210;27;20602;-80
2022/01/09 10:51:02;;;;;;;10.90;3.25;;;3.30;99.90;;;;;;5120742;27;20055;-82
2022/01/09 10:53:50;;;;;;;6.45;2.38;;;3.40;99.90;;;;;;5099410;27;20043;-78
2022/01/09 10:56:38;;;;;;;8.68;2.42;;;4.20;99.90;;;;;;5116046;27;20070;-80
2022/01/09 10:59:30;;;;;;;6.38;2.30;;;4.40;99.90;;;;;;5113001;27;20039;-79
2022/01/09 11:02:22;;;;;;;6.95;2.10;;;5.10;99.90;;;;;;5110318;27;20085;-80
2022/01/09 11:05:09;;;;;;;9.57;2.47;;;5.20;99.90;;;;;;5113739;28;20044;-80
2022/01/09 11:07:56;;;;;;;11.80;2.50;;;5.10;99.90;;;;;;5126977;28;20058;-81
2022/01/09 11:14:52;;;;;;;4.82;1.67;;;7.10;99.90;;;;;;5127102;27;20476;-80
2022/01/09 11:17:45;;;;;;;6.60;2.08;;;6.60;99.90;;;;;;5111512;28;20059;-80
2022/01/09 11:20:32;;;;;;;8.60;2.03;;;6.60;99.90;;;;;;5121713;27;20545;-82
2022/01/09 11:27:40;;;;;;;5.50;1.50;;;5.90;99.90;;;;;;5126378;28;20488;-80
2022/01/09 11:35:19;;;;;;;6.63;1.63;;;7.90;99.90;;;;;;5130956;27;20075;-82
2022/01/09 11:39:11;;;;;;;3.60;1.30;;;9.40;99.90;;;;;;5042489;28;20114;-82
2022/01/09 11:42:09;;;;;;;5.97;1.80;;;10.30;99.90;;;;;;5061938;28;20080;-81
2022/01/09 11:45:36;;;;;;;4.20;1.48;;;10.20;99.90;;;;;;5041671;28;20044;-82
2022/01/09 11:48:58;;;;;;;5.72;1.80;;;10.80;96.50;;;;;;5039467;28;20064;-83
2022/01/09 11:56:31;;;;;;;4.55;1.50;;;8.20;99.90;;;;;;5030660;28;20021;-81
2022/01/09 11:59:57;;;;;;;5.13;1.85;;;7.90;99.90;;;;;;5037893;28;20053;-83
2022/01/09 12:02:44;;;;;;;10.25;2.17;;;8.40;99.90;;;;;;5043185;28;20460;-82
2022/01/09 12:06:01;;;;;;;7.40;2.35;;;8.00;99.90;;;;;;5016201;28;20049;-83
2022/01/09 12:08:57;;;;;;;10.57;2.35;;;7.70;99.90;;;;;;5038902;28;20048;-82
2022/01/09 12:12:02;;;;;;;5.20;2.05;;;6.50;99.90;;;;;;5072649;28;20342;-82
2022/01/09 12:14:54;;;;;;;3.08;1.83;;;5.80;99.90;;;;;;5092286;28;20044;-81
2022/01/09 12:17:46;;;;;;;7.00;2.35;;;5.30;99.90;;;;;;5075563;28;20047;-81
2022/01/09 12:20:41;;;;;;;3.88;1.58;;;5.00;99.90;;;;;;5088319;28;20124;-81
2022/01/09 12:23:28;;;;;;;8.88;2.53;;;4.60;99.90;;;;;;5075823;28;20449;-83
2022/01/09 12:26:27;;;;;;;12.10;2.40;;;4.40;99.90;;;;;;5077390;28;20051;-82
2022/01/09 12:29:46;;;;;;;10.40;2.83;;;4.20;99.90;;;;;;5076057;28;20056;-81
2022/01/09 12:33:01;;;;;;;11.00;2.90;;;4.20;99.90;;;;;;5094367;28;20043;-81
2022/01/09 12:36:05;;;;;;;11.18;2.95;;;4.20;99.90;;;;;;5076317;28;20055;-80
2022/01/09 12:38:57;;;;;;;10.85;2.45;;;4.40;99.90;;;;;;5082924;28;20448;-81
2022/01/09 12:41:44;;;;;;;9.47;2.17;;;5.30;99.90;;;;;;5093689;28;20036;-82
2022/01/09 12:44:32;;;;;;;7.10;2.05;;;5.90;99.90;;;;;;5078198;28;20082;-81
2022/01/09 12:47:19;;;;;;;10.73;2.28;;;6.80;99.90;;;;;;5097604;27;20118;-78
2022/01/09 12:50:07;;;;;;;5.80;1.52;;;6.50;99.90;;;;;;5131450;27;20043;-78
2022/01/09 12:53:10;;;;;;;12.07;2.13;;;5.50;99.90;;;;;;5112524;27;20135;-81
2022/01/09 12:56:01;;;;;;;;;;;5.20;99.90;;;;;;5131412;27;20195;-77
2022/01/09 12:59:00;;;;;;;8.98;2.38;;;5.00;99.90;;;;;;5133032;27;20015;-81
2022/01/09 13:01:48;;;;;;;10.00;2.30;;;4.90;99.90;;;;;;5114658;27;20143;-80
2022/01/09 13:04:39;;;;;;;6.80;2.20;;;4.60;99.90;;;;;;5110049;27;20108;-79
2022/01/09 13:07:27;;;;;;;7.75;2.40;;;4.40;99.90;;;;;;5127040;27;20061;-78
2022/01/09 13:10:15;;;;;;;15.60;2.92;;;4.30;99.90;;;;;;5104391;27;20464;-79
2022/01/09 13:13:04;;;;;;;6.93;2.55;;;4.20;99.90;;;;;;5102197;27;20039;-78
2022/01/09 13:15:53;;;;;;;9.32;2.90;;;4.50;99.90;;;;;;5119385;27;20042;-79
2022/01/09 13:18:45;;;;;;;4.00;1.80;;;5.50;99.90;;;;;;5117547;27;20036;-78
2022/01/09 13:21:36;;;;;;;4.78;1.70;;;6.20;99.90;;;;;;5103803;27;20072;-79
2022/01/09 13:24:25;;;;;;;6.18;2.53;;;7.60;99.90;;;;;;5119336;27;20042;-78
2022/01/09 13:27:23;;;;;;;7.45;2.10;;;8.70;99.90;;;;;;5133463;27;20141;-78
2022/01/09 13:30:11;;;;;;;8.98;1.80;;;8.90;99.90;;;;;;5122235;27;20047;-79
2022/01/09 13:33:02;;;;;;;8.70;2.40;;;9.30;97.20;;;;;;5117520;27;20042;-78
2022/01/09 13:35:50;;;;;;;7.57;2.00;;;9.50;96.70;;;;;;5111169;27;20049;-79
2022/01/09 13:38:46;;;;;;;6.47;2.38;;;10.30;93.90;;;;;;5130599;27;20035;-80
2022/01/09 13:41:38;;;;;;;3.17;1.38;;;10.40;93.40;;;;;;5112285;27;20356;-81
2022/01/09 13:44:28;;;;;;;4.45;1.48;;;10.20;91.10;;;;;;5114666;27;20694;-80
2022/01/09 13:47:17;;;;;;;5.03;1.50;;;9.90;91.00;;;;;;5104254;28;20152;-78
2022/01/09 13:50:11;;;;;;;7.38;1.55;;;10.10;90.90;;;;;;5123081;27;20050;-81
2022/01/09 13:53:13;;;;;;;4.32;1.40;;;10.00;89.70;;;;;;5107715;28;20043;-81
2022/01/09 13:56:07;;;;;;;8.07;1.42;;;8.10;93.70;;;;;;5111353;28;20136;-81
2022/01/09 13:58:56;;;;;;;8.77;2.17;;;8.20;96.50;;;;;;5120144;27;20066;-80
2022/01/09 14:01:53;;;;;;;8.50;2.03;;;9.00;95.10;;;;;;5139630;27;20392;-80
2022/01/09 14:04:40;;;;;;;7.53;2.03;;;8.20;95.70;;;;;;5108463;27;20463;-80
2022/01/09 14:07:30;;;;;;;5.53;1.40;;;7.60;98.20;;;;;;5131571;27;20035;-80
2022/01/09 14:10:19;;;;;;;6.55;1.67;;;8.20;96.70;;;;;;5127859;27;20051;-81
2022/01/09 14:13:27;;;;;;;5.57;2.78;;;8.30;95.80;;;;;;5118066;27;20047;-80
2022/01/09 14:16:16;;;;;;;5.68;1.95;;;7.70;98.00;;;;;;5101768;27;20043;-80
2022/01/09 14:19:06;;;;;;;7.43;1.67;;;6.60;99.30;;;;;;5131249;27;20198;-80
2022/01/09 14:21:57;;;;;;;4.78;1.98;;;5.70;99.90;;;;;;5142455;27;20133;-79
2022/01/09 14:25:08;;;;;;;8.45;1.90;;;5.30;99.90;;;;;;5122075;27;20043;-79
2022/01/09 14:28:14;;;;;;;5.82;1.67;;;5.10;99.90;;;;;;5127208;27;20500;-80
2022/01/09 14:31:06;;;;;;;4.18;1.90;;;5.50;99.90;;;;;;5119816;27;20049;-78
2022/01/09 14:33:57;;;;;;;;;;;7.20;99.90;;;;;;5124467;27;20107;-79
2022/01/09 14:36:47;;;;;;;4.38;1.65;;;8.50;99.90;;;;;;5108829;27;19920;-79
2022/01/09 14:39:34;;;;;;;7.57;1.75;;;9.10;94.00;;;;;;5131312;27;20042;-82
2022/01/09 14:42:22;;;;;;;6.50;1.60;;;8.30;94.40;;;;;;5133397;27;20100;-79
2022/01/09 14:45:09;;;;;;;6.45;1.80;;;7.50;96.20;;;;;;5118742;27;20050;-79
2022/01/09 14:47:57;;;;;;;9.45;2.00;;;6.60;99.90;;;;;;5130384;27;20497;-80
2022/01/09 14:50:45;;;;;;;8.02;2.53;;;5.90;99.90;;;;;;5104022;27;20051;-80
2022/01/09 14:53:32;;;;;;;8.85;3.85;;;5.10;99.90;;;;;;5134505;27;20122;-80
2022/01/09 14:56:21;;;;;;;10.60;3.75;;;4.70;99.90;;;;;;5121023;27;20111;-81
2022/01/09 14:59:13;;;;;;;6.50;2.53;;;4.40;99.90;;;;;;5118591;27;20054;-79
2022/01/09 15:02:02;;;;;;;8.35;2.47;;;4.20;99.90;;;;;;5119680;27;20050;-78
2022/01/09 15:04:49;;;;;;;9.32;1.95;;;4.10;99.90;;;;;;5117016;27;20050;-80
2022/01/09 15:07:37;;;;;;;11.00;2.55;;;4.00;99.90;;;;;;5095273;28;20047;-79
2022/01/09 15:10:24;;;;;;;10.63;2.00;;;3.90;99.90;;;;;;5117923;28;20051;-80
2022/01/09 15:13:14;;;;;;;4.95;1.83;;;3.80;99.90;;;;;;5108877;27;20073;-79
2022/01/09 15:16:01;;;;;;;8.00;2.63;;;3.70;99.90;;;;;;5132432;27;20101;-79
2022/01/09 15:18:50;;;;;;;6.38;1.92;;;3.60;99.90;;;;;;5115189;28;20071;-79
2022/01/09 15:21:37;;;;;;;12.98;2.80;;;3.60;99.90;;;;;;5130565;27;20054;-80
2022/01/09 15:24:25;;;;;;;8.73;2.58;;;3.60;99.90;;;;;;5132380;27;20400;-79
2022/01/09 15:27:17;;;;;;;;;;;3.50;99.90;;;;;;5114896;28;20043;-79
2022/01/09 15:30:07;;;;;;;9.88;3.63;;;3.50;99.90;;;;;;5115219;28;19933;-79
2022/01/09 15:32:58;;;;;;;8.45;2.28;;;3.50;99.90;;;;;;5098808;28;20054;-84
2022/01/09 15:35:47;;;;;;;13.15;2.92;;;3.40;99.90;;;;;;5124886;27;20233;-83
2022/01/09 15:38:34;;;;;;;8.70;2.75;;;3.30;99.90;;;;;;5126057;27;20490;-84
2022/01/09 15:41:22;;;;;;;8.38;2.95;;;3.20;99.90;;;;;;5124780;27;20054;-81
2022/01/09 15:44:11;;;;;;;9.18;3.97;;;3.10;99.90;;;;;;5119563;27;20039;-83
2022/01/09 15:46:59;;;;;;;9.90;4.03;;;3.10;99.90;;;;;;5101601;27;20143;-83
2022/01/09 15:49:46;;;;;;;7.70;1.63;;;3.10;99.90;;;;;;5105913;27;20059;-82
2022/01/09 15:52:34;;;;;;;5.07;1.80;;;3.00;99.90;;;;;;5130531;27;20051;-82
2022/01/09 15:55:21;;;;;;;5.95;1.65;;;2.90;99.90;;;;;;5120350;27;20150;-81
2022/01/09 15:58:09;;;;;;;4.97;1.75;;;2.80;99.90;;;;;;5094555;27;20077;-79
2022/01/09 16:00:56;;;;;;;6.35;1.77;;;2.70;99.90;;;;;;5126651;27;20047;-81
2022/01/09 16:03:44;;;;;;;4.30;1.63;;;2.50;99.90;;;;;;5131263;27;20047;-83
2022/01/09 16:06:33;;;;;;;6.22;1.63;;;2.40;99.90;;;;;;5127293;27;20125;-82